East Smithfield, Pennsylvania
Current Conditions -  °F | °C
As of 6:02 AM on Friday 24 Oct 2014 (Local Time) from KELM Reporting Station
Few Clouds Few Clouds  
Wind Chill: 43°   Ceiling: Unl
Heat Index: 43°   Visibility: 10mi
Dew Point: 43°   Wind: 0mph
Humidity: 100%   Direction: NA
Pressure: 29.96"   Gusts: NA
Location:  41.86°N, 76.63°W
Report Text: KELM 241002Z 00000KT 10SM FEW002 06/06 A2996 RMK AO2 T00610061
Loading
Personal Weather Stations






























Interactive Weather Map
Tropical Storm Tracking
New forecast layout! Learn more

10-Day Weather Forecast

Advertisements
Track Severe Weather on mobile